Looking Southeast more information Looking Southeast


Rain radar more information rain snow radar


Visit our other weather sites:

Template documentation
and downloads

And another site


Nearby METAR Reports

   
EHVK - Volkel Rnlafb, Netherlands
Distance from station: SW 11 mi
Updated: Jun 26 2019 6:25 am
Haze, Overcast  
Haze, Overcast  
   Wind: NW 6.9 mph
Wind: NW 6.9 mph
Temperature: 71.6°F
Dew Point: 64.4°F
Humidity: 78%
Barometer: 30.27 inHg
Clouds: Overcast
Visibility: 6 mi
Cloud details: Overcast 427 m
EHVK 261025Z AUTO 32006KT 270V030 9000 HZ OVC014 22/18 Q1025 GRN 32007KT 6000 OVC012 BECMG SCT014
EDLV - Niederrhein, Germany
Distance from station: SE 15 mi
Updated: Jun 26 2019 6:20 am
Mostly Cloudy  
Mostly Cloudy  
   Wind: WNW 8.1 mph
Wind: WNW 8.1 mph
Temperature: 73.4°F
Dew Point: 64.4°F
Humidity: 74%
Barometer: 30.27 inHg
Clouds: Mostly Cloudy
Visibility: 4 mi
Cloud details: Mostly Cloudy 457 m
EDLV 261020Z 30007KT 250V350 6000 BKN015 23/18 Q1025
EHDL - Deelen Rnlafb, Netherlands
Distance from station: N 22 mi
Updated: Jun 26 2019 6:25 am
Clear  
Clear  
   Wind: NW 10.4 mph
Wind: NW 10.4 mph
Temperature: 77°F
Dew Point: 64.4°F
Humidity: 65%
Barometer: 30.27 inHg
Clouds: Clear
Visibility: More than 6 mi
Cloud details: Clear
EHDL 261025Z AUTO 32009KT 260V050 9999 NCD 25/18 Q1025 BLU
EHEH - Eindhoven Rnlafb, Netherlands
Distance from station: SW 30 mi
Updated: Jun 26 2019 6:30 am
Mostly Cloudy  
Mostly Cloudy  
   Wind: NNW 8.1 mph
Wind: NNW 8.1 mph
Temperature: 75.2°F
Dew Point: 64.4°F
Humidity: 69%
Barometer: 30.27 inHg
Clouds: Mostly Cloudy
Visibility: More than 6 mi
Cloud details: Mostly Cloudy 518 m
EHEH 261030Z AUTO 33007KT 280V020 9999 BKN017 24/18 Q1025 WHT 35007KT 9999 SCT020
EHGR - Gilze-Rijen Rnla, Netherlands
Distance from station: WSW 43 mi
Updated: Jun 26 2019 6:32 am
Mostly Cloudy  
Mostly Cloudy  
   Wind: North 9.2 mph
Wind: North 9.2 mph
Temperature: 71.6°F
Dew Point: 62.6°F
Humidity: 73%
Barometer: 30.3 inHg
Clouds: Mostly Cloudy
Visibility: More than 6 mi
Cloud details: Mostly Cloudy 457 m
EHGR 261032Z AUTO 36008KT 270V050 9999 BKN015 22/17 Q1026 WHT
EBBL - Kleine-Brogel(Ba, Belgium
Distance from station: SSW 44 mi
Updated: Jun 26 2019 6:41 am
Few Clouds  
Few Clouds  
   Wind: NW 4.6 mph
Wind: NW 4.6 mph
Temperature: 77°F
Dew Point: 64.4°F
Humidity: 65%
Barometer: 30.3 inHg
Clouds: Few Clouds
Visibility: 3 mi
Cloud details: Few Clouds 427 m
EBBL 261041Z 31004KT 5000 FEW014 25/18 Q1026 WHT WHT BECMG BLU

Script developed by  Saratoga-weather.org Adapted for the template by  Weerstation Leuven

You find our weather info also at:

WeatherCloud

Citizen Weather Observer Program (CWOP)

Equipment we use:

Weather-station
Davis VP2

Weather-program
Weather Display

Provider
GoDaddy

Davis VP2

Weather Display

GoDaddy